Time;durP1;ratioP1;P1;durP2;ratioP2;P2;SDS_P1;SDS_P2;PMS_P1;PMS_P2;Temp;Humidity;BMP_temperature;BMP_pressure;BME280_temperature;BME280_humidity;BME280_pressure;Samples;Min_cycle;Max_cycle;Signal;HPM_P1;HPM_P2
2023/03/28 00:00:15;;;;;;;0.15;0.15;;;;;;;;;;4823328;29;20042;-81
2023/03/28 00:02:44;;;;;;;0.20;0.20;;;;;;;;;;4823101;29;20528;-81
2023/03/28 00:05:36;;;;;;;0.20;0.20;;;;;;;;;;4847734;23;20054;-81
2023/03/28 00:08:02;;;;;;;0.17;0.17;;;;;;;;;;4858878;29;20111;-81
2023/03/28 00:10:31;;;;;;;0.20;0.20;;;;;;;;;;4858456;29;20084;-81
2023/03/28 00:12:57;;;;;;;0.20;0.20;;;;;;;;;;4867646;29;20042;-81
2023/03/28 00:15:42;;;;;;;0.20;0.20;;;;;;;;;;4859842;29;20049;-80
2023/03/28 00:18:12;;;;;;;0.20;0.20;;;;;;;;;;4849451;29;20061;-81
2023/03/28 00:20:42;;;;;;;0.20;0.20;;;;;;;;;;4855140;29;20046;-81
2023/03/28 00:23:10;;;;;;;0.10;0.10;;;;;;;;;;4859233;29;20128;-81
2023/03/28 00:26:07;;;;;;;0.20;0.20;;;;;;;;;;4840779;29;20052;-81
2023/03/28 00:28:34;;;;;;;0.20;0.20;;;;;;;;;;4848141;29;20104;-81
2023/03/28 00:31:25;;;;;;;0.20;0.20;;;;;;;;;;4838094;29;20050;-81
2023/03/28 00:34:27;;;;;;;0.20;0.20;;;;;;;;;;4837664;29;20051;-81
2023/03/28 00:37:03;;;;;;;0.20;0.20;;;;;;;;;;4855190;29;20692;-80
2023/03/28 00:39:30;;;;;;;0.20;0.20;;;;;;;;;;4858420;29;20622;-81
2023/03/28 00:42:12;;;;;;;0.20;0.20;;;;;;;;;;4857615;29;20050;-81
2023/03/28 00:45:03;;;;;;;0.20;0.20;;;;;;;;;;4858065;29;20046;-81
2023/03/28 00:47:56;;;;;;;0.20;0.20;;;;;;;;;;4844785;29;20053;-81
2023/03/28 00:50:35;;;;;;;0.20;0.20;;;;;;;;;;4859013;29;20049;-81
2023/03/28 00:53:20;;;;;;;0.20;0.20;;;;;;;;;;4838236;29;20068;-81
2023/03/28 00:56:07;;;;;;;0.20;0.20;;;;;;;;;;4843876;29;20076;-81
2023/03/28 00:58:37;;;;;;;0.20;0.20;;;;;;;;;;4856209;29;20128;-81
2023/03/28 01:01:15;;;;;;;0.20;0.20;;;;;;;;;;4837505;29;20056;-81
2023/03/28 01:03:45;;;;;;;0.20;0.20;;;;;;;;;;4834369;29;20056;-81
2023/03/28 01:06:49;;;;;;;0.20;0.20;;;;;;;;;;4824119;29;20081;-81
2023/03/28 01:09:16;;;;;;;0.20;0.20;;;;;;;;;;4856487;29;20053;-81
2023/03/28 01:11:43;;;;;;;0.13;0.13;;;;;;;;;;4839763;29;20105;-81
2023/03/28 01:14:12;;;;;;;0.20;0.20;;;;;;;;;;4840887;29;20053;-81
2023/03/28 01:16:58;;;;;;;0.20;0.20;;;;;;;;;;4839994;29;20140;-81
2023/03/28 01:19:28;;;;;;;0.20;0.20;;;;;;;;;;4841124;29;20513;-80
2023/03/28 01:22:19;;;;;;;0.20;0.20;;;;;;;;;;4855069;29;20049;-80
2023/03/28 01:25:03;;;;;;;0.20;0.20;;;;;;;;;;4846722;29;20112;-81
2023/03/28 01:27:54;;;;;;;0.20;0.20;;;;;;;;;;4857882;29;20701;-81
2023/03/28 01:30:38;;;;;;;0.20;0.20;;;;;;;;;;4856268;29;20049;-81
2023/03/28 01:33:24;;;;;;;0.20;0.20;;;;;;;;;;4861970;29;20142;-81
2023/03/28 01:36:24;;;;;;;0.20;0.20;;;;;;;;;;4837024;29;20050;-81
2023/03/28 01:39:03;;;;;;;0.20;0.20;;;;;;;;;;4861591;29;20472;-81
2023/03/28 01:42:05;;;;;;;0.20;0.20;;;;;;;;;;4815741;29;20466;-80
2023/03/28 01:44:51;;;;;;;0.17;0.17;;;;;;;;;;4802840;29;20103;-80
2023/03/28 01:47:26;;;;;;;0.20;0.20;;;;;;;;;;4803441;29;20187;-80
2023/03/28 01:50:22;;;;;;;0.17;0.17;;;;;;;;;;4820497;29;20095;-81
2023/03/28 01:53:02;;;;;;;0.20;0.20;;;;;;;;;;4748649;30;20055;-81
2023/03/28 01:56:04;;;;;;;0.20;0.20;;;;;;;;;;4754484;30;20489;-80
2023/03/28 01:58:40;;;;;;;0.20;0.20;;;;;;;;;;4764894;30;20075;-80
2023/03/28 02:01:25;;;;;;;0.20;0.20;;;;;;;;;;4762423;30;20084;-80
2023/03/28 02:03:55;;;;;;;0.20;0.20;;;;;;;;;;4764243;30;20113;-81
2023/03/28 02:06:22;;;;;;;0.20;0.20;;;;;;;;;;4749281;30;20461;-81
2023/03/28 02:09:06;;;;;;;0.20;0.20;;;;;;;;;;4752724;30;20614;-81
2023/03/28 02:11:47;;;;;;;0.20;0.20;;;;;;;;;;4752497;30;20040;-81
2023/03/28 02:14:22;;;;;;;0.20;0.20;;;;;;;;;;4752399;30;20562;-80
2023/03/28 02:17:03;;;;;;;0.20;0.20;;;;;;;;;;4788989;29;20130;-80
2023/03/28 02:19:38;;;;;;;0.20;0.20;;;;;;;;;;4814930;29;20068;-80
2023/03/28 02:22:31;;;;;;;0.10;0.10;;;;;;;;;;4857131;29;20383;-81
2023/03/28 02:25:13;;;;;;;0.20;0.20;;;;;;;;;;4840639;29;20050;-80
2023/03/28 02:27:40;;;;;;;0.20;0.20;;;;;;;;;;4841841;29;20095;-81
2023/03/28 02:30:07;;;;;;;0.20;0.20;;;;;;;;;;4840826;29;20049;-81
2023/03/28 02:32:36;;;;;;;0.20;0.20;;;;;;;;;;4842659;29;20595;-80
2023/03/28 02:35:04;;;;;;;0.20;0.20;;;;;;;;;;4844507;29;20045;-81
2023/03/28 02:37:30;;;;;;;0.20;0.20;;;;;;;;;;4843793;29;20447;-81
2023/03/28 02:40:18;;;;;;;0.17;0.17;;;;;;;;;;4844219;29;20109;-80
2023/03/28 02:42:47;;;;;;;0.20;0.20;;;;;;;;;;4859854;29;20042;-81
2023/03/28 02:45:32;;;;;;;0.20;0.20;;;;;;;;;;4857191;29;20451;-80
2023/03/28 02:48:17;;;;;;;0.20;0.20;;;;;;;;;;4837852;29;20499;-81
2023/03/28 02:51:08;;;;;;;0.20;0.20;;;;;;;;;;4841914;29;20512;-80
2023/03/28 02:53:43;;;;;;;0.20;0.20;;;;;;;;;;4840554;29;20054;-80
2023/03/28 02:56:49;;;;;;;0.20;0.20;;;;;;;;;;4823459;29;20053;-80
2023/03/28 02:59:34;;;;;;;0.13;0.13;;;;;;;;;;4855979;29;20410;-80
2023/03/28 03:02:02;;;;;;;0.20;0.20;;;;;;;;;;4841500;29;20068;-80
2023/03/28 03:04:28;;;;;;;0.20;0.20;;;;;;;;;;4863331;23;20144;-81
2023/03/28 03:06:54;;;;;;;0.20;0.20;;;;;;;;;;4840193;29;20045;-80
2023/03/28 03:09:21;;;;;;;0.20;0.20;;;;;;;;;;4842014;29;20046;-80
2023/03/28 03:11:47;;;;;;;0.20;0.20;;;;;;;;;;4842282;29;20080;-81
2023/03/28 03:14:14;;;;;;;0.20;0.20;;;;;;;;;;4836241;29;20053;-80
2023/03/28 03:16:42;;;;;;;0.20;0.20;;;;;;;;;;4828612;29;20162;-81
2023/03/28 03:19:08;;;;;;;0.20;0.20;;;;;;;;;;4839400;29;20046;-81
2023/03/28 03:21:36;;;;;;;0.20;0.20;;;;;;;;;;4836369;29;20213;-81
2023/03/28 03:24:05;;;;;;;0.20;0.20;;;;;;;;;;4836768;29;20052;-80
2023/03/28 03:26:31;;;;;;;0.20;0.20;;;;;;;;;;4852114;29;20045;-81
2023/03/28 03:28:59;;;;;;;0.20;0.20;;;;;;;;;;4828760;29;20045;-81
2023/03/28 03:31:26;;;;;;;0.20;0.20;;;;;;;;;;4848517;29;20099;-81
2023/03/28 03:33:52;;;;;;;0.20;0.20;;;;;;;;;;4834806;29;20061;-80
2023/03/28 03:36:19;;;;;;;0.20;0.20;;;;;;;;;;4835311;29;20524;-80
2023/03/28 03:38:46;;;;;;;0.20;0.20;;;;;;;;;;4826825;29;20162;-80
2023/03/28 03:41:21;;;;;;;0.20;0.20;;;;;;;;;;4850425;29;20117;-79
2023/03/28 03:43:47;;;;;;;0.20;0.20;;;;;;;;;;4850921;29;20057;-79
2023/03/28 03:46:19;;;;;;;0.15;0.15;;;;;;;;;;4860348;29;20426;-79
2023/03/28 03:48:45;;;;;;;0.20;0.20;;;;;;;;;;4843788;29;20057;-80
2023/03/28 03:51:11;;;;;;;0.20;0.20;;;;;;;;;;4837819;29;20060;-80
2023/03/28 03:53:38;;;;;;;0.20;0.20;;;;;;;;;;4826036;29;20050;-79
2023/03/28 03:56:05;;;;;;;0.20;0.20;;;;;;;;;;4848764;29;20633;-79
2023/03/28 03:58:34;;;;;;;0.20;0.20;;;;;;;;;;4826436;29;20050;-80
2023/03/28 04:01:00;;;;;;;0.20;0.20;;;;;;;;;;4830937;29;20062;-80
2023/03/28 04:03:27;;;;;;;0.20;0.20;;;;;;;;;;4829641;29;20053;-80
2023/03/28 04:05:56;;;;;;;0.20;0.20;;;;;;;;;;4855475;29;20066;-80
2023/03/28 04:08:22;;;;;;;0.10;0.10;;;;;;;;;;4861107;29;20086;-80
2023/03/28 04:10:48;;;;;;;0.20;0.20;;;;;;;;;;4829438;29;20052;-80
2023/03/28 04:13:15;;;;;;;0.20;0.20;;;;;;;;;;4824498;29;20053;-80
2023/03/28 04:15:41;;;;;;;0.20;0.20;;;;;;;;;;4849744;29;20061;-80
2023/03/28 04:18:07;;;;;;;0.20;0.20;;;;;;;;;;4852652;29;20141;-79
2023/03/28 04:20:33;;;;;;;0.20;0.20;;;;;;;;;;4845000;29;20392;-80
2023/03/28 04:22:59;;;;;;;0.20;0.20;;;;;;;;;;4840799;29;20048;-79
2023/03/28 04:25:28;;;;;;;0.20;0.20;;;;;;;;;;4840482;29;20053;-79
2023/03/28 04:27:54;;;;;;;0.20;0.20;;;;;;;;;;4843772;29;20053;-80
2023/03/28 04:30:20;;;;;;;0.20;0.20;;;;;;;;;;4843396;29;20042;-79
2023/03/28 04:32:53;;;;;;;0.20;0.20;;;;;;;;;;4835938;29;20492;-80
2023/03/28 04:35:19;;;;;;;0.20;0.20;;;;;;;;;;4858664;29;20058;-80
2023/03/28 04:37:46;;;;;;;0.20;0.20;;;;;;;;;;4842172;29;20518;-80
2023/03/28 04:40:14;;;;;;;0.20;0.20;;;;;;;;;;4840503;29;20053;-79
2023/03/28 04:42:40;;;;;;;0.20;0.20;;;;;;;;;;4855029;29;20398;-80
2023/03/28 04:45:07;;;;;;;0.15;0.15;;;;;;;;;;4854075;29;20046;-78
2023/03/28 04:47:36;;;;;;;0.20;0.20;;;;;;;;;;4845554;29;20050;-80
2023/03/28 04:50:06;;;;;;;0.15;0.15;;;;;;;;;;4842653;29;20046;-80
2023/03/28 04:52:32;;;;;;;0.20;0.20;;;;;;;;;;4823459;29;20089;-79
2023/03/28 04:54:58;;;;;;;0.20;0.20;;;;;;;;;;4824664;29;20042;-80
2023/03/28 04:57:24;;;;;;;0.20;0.20;;;;;;;;;;4834281;29;20297;-78
2023/03/28 04:59:51;;;;;;;0.17;0.17;;;;;;;;;;4841894;29;20157;-79
2023/03/28 05:02:17;;;;;;;0.20;0.20;;;;;;;;;;4837018;29;20048;-81
2023/03/28 05:04:43;;;;;;;0.20;0.20;;;;;;;;;;4831265;29;20069;-80
2023/03/28 05:07:10;;;;;;;0.20;0.20;;;;;;;;;;4833373;29;20049;-80
2023/03/28 05:09:36;;;;;;;0.20;0.20;;;;;;;;;;4849312;29;20050;-80
2023/03/28 05:12:02;;;;;;;0.10;0.10;;;;;;;;;;4845573;29;20102;-80
2023/03/28 05:14:31;;;;;;;0.10;0.10;;;;;;;;;;4833680;29;20045;-79
2023/03/28 05:16:57;;;;;;;0.20;0.20;;;;;;;;;;4846738;29;20394;-79
2023/03/28 05:19:24;;;;;;;0.20;0.20;;;;;;;;;;4832563;29;20094;-79
2023/03/28 05:21:50;;;;;;;0.20;0.20;;;;;;;;;;4831074;29;20046;-79
2023/03/28 05:24:16;;;;;;;0.20;0.20;;;;;;;;;;4827731;29;20057;-79
2023/03/28 05:26:45;;;;;;;0.20;0.20;;;;;;;;;;4834157;29;20049;-79
2023/03/28 05:29:14;;;;;;;0.20;0.20;;;;;;;;;;4839105;29;20046;-79
2023/03/28 05:31:40;;;;;;;0.20;0.20;;;;;;;;;;4871160;29;20498;-78
2023/03/28 05:34:06;;;;;;;0.13;0.13;;;;;;;;;;4870345;29;20121;-79
2023/03/28 05:36:32;;;;;;;0.20;0.20;;;;;;;;;;4830006;29;20434;-79
2023/03/28 05:38:58;;;;;;;0.20;0.20;;;;;;;;;;4824727;29;20057;-79
2023/03/28 05:41:24;;;;;;;0.20;0.20;;;;;;;;;;4830382;29;20046;-79
2023/03/28 05:43:50;;;;;;;0.20;0.20;;;;;;;;;;4840816;29;20053;-81
2023/03/28 05:46:16;;;;;;;0.10;0.10;;;;;;;;;;4839979;29;20450;-81
2023/03/28 05:48:45;;;;;;;0.20;0.20;;;;;;;;;;4837180;29;20505;-81
2023/03/28 05:51:11;;;;;;;0.20;0.20;;;;;;;;;;4827657;29;20054;-81
2023/03/28 05:53:37;;;;;;;0.20;0.20;;;;;;;;;;4832294;29;20076;-80
2023/03/28 05:56:03;;;;;;;0.20;0.20;;;;;;;;;;4851488;29;20426;-81
2023/03/28 05:58:32;;;;;;;0.20;0.20;;;;;;;;;;4847970;29;20046;-80
2023/03/28 06:00:59;;;;;;;0.20;0.20;;;;;;;;;;4843197;29;20041;-81
2023/03/28 06:03:26;;;;;;;0.20;0.20;;;;;;;;;;4851152;29;20537;-80
2023/03/28 06:05:53;;;;;;;0.20;0.20;;;;;;;;;;4831396;29;20060;-81
2023/03/28 06:08:19;;;;;;;0.20;0.20;;;;;;;;;;4828867;29;20498;-81
2023/03/28 06:10:45;;;;;;;0.20;0.20;;;;;;;;;;4838919;29;20495;-81
2023/03/28 06:13:11;;;;;;;0.20;0.20;;;;;;;;;;4838997;29;20053;-81
2023/03/28 06:15:37;;;;;;;0.20;0.20;;;;;;;;;;4857141;29;20061;-81
2023/03/28 06:18:03;;;;;;;0.20;0.20;;;;;;;;;;4834609;29;20049;-81
2023/03/28 06:20:35;;;;;;;0.20;0.20;;;;;;;;;;4849604;29;20534;-81
2023/03/28 06:23:02;;;;;;;0.20;0.20;;;;;;;;;;4851601;29;20053;-81
2023/03/28 06:25:28;;;;;;;0.20;0.20;;;;;;;;;;4833824;29;20053;-79
2023/03/28 06:27:57;;;;;;;0.10;0.10;;;;;;;;;;4832983;29;20049;-78
2023/03/28 06:30:23;;;;;;;0.20;0.20;;;;;;;;;;4852042;29;20050;-77
2023/03/28 06:32:49;;;;;;;0.20;0.20;;;;;;;;;;4840240;29;20280;-78
2023/03/28 06:35:15;;;;;;;0.20;0.20;;;;;;;;;;4835668;29;20061;-80
2023/03/28 06:37:41;;;;;;;0.20;0.20;;;;;;;;;;4841698;29;20044;-80
2023/03/28 06:40:08;;;;;;;0.20;0.20;;;;;;;;;;4838552;29;20107;-80
2023/03/28 06:42:34;;;;;;;0.20;0.20;;;;;;;;;;4834554;29;20056;-80
2023/03/28 06:45:01;;;;;;;0.20;0.20;;;;;;;;;;4834420;29;20145;-80
2023/03/28 06:47:28;;;;;;;0.20;0.20;;;;;;;;;;4826271;29;20102;-80
2023/03/28 06:49:54;;;;;;;0.20;0.20;;;;;;;;;;4841707;29;20042;-80
2023/03/28 06:52:22;;;;;;;0.20;0.20;;;;;;;;;;4822258;29;20050;-79
2023/03/28 06:54:48;;;;;;;0.20;0.20;;;;;;;;;;4844679;29;20089;-80
2023/03/28 06:57:15;;;;;;;0.20;0.20;;;;;;;;;;4844257;29;20058;-80
2023/03/28 06:59:41;;;;;;;0.10;0.10;;;;;;;;;;4850306;29;20056;-80
2023/03/28 07:02:09;;;;;;;0.20;0.20;;;;;;;;;;4839529;29;20055;-79
2023/03/28 07:04:35;;;;;;;0.20;0.20;;;;;;;;;;4857014;29;20421;-80
2023/03/28 07:07:08;;;;;;;0.20;0.20;;;;;;;;;;4855635;29;20116;-79
2023/03/28 07:09:34;;;;;;;0.20;0.20;;;;;;;;;;4831470;29;20578;-79
2023/03/28 07:12:00;;;;;;;0.20;0.20;;;;;;;;;;4826259;29;20054;-79
2023/03/28 07:14:26;;;;;;;0.15;0.15;;;;;;;;;;4842905;29;20068;-79
2023/03/28 07:16:52;;;;;;;0.20;0.20;;;;;;;;;;4838182;29;20081;-80
2023/03/28 07:19:19;;;;;;;0.10;0.10;;;;;;;;;;4874156;29;20163;-78
2023/03/28 07:21:45;;;;;;;0.20;0.20;;;;;;;;;;4835434;29;20194;-79
2023/03/28 07:24:12;;;;;;;0.20;0.20;;;;;;;;;;4832194;29;20054;-79
2023/03/28 07:26:38;;;;;;;0.20;0.20;;;;;;;;;;4846771;29;20053;-80
2023/03/28 07:29:04;;;;;;;0.20;0.20;;;;;;;;;;4859134;29;20064;-79
2023/03/28 07:31:30;;;;;;;0.20;0.20;;;;;;;;;;4854828;29;20116;-80
2023/03/28 07:33:56;;;;;;;0.10;0.10;;;;;;;;;;4843933;29;20058;-80
2023/03/28 07:36:23;;;;;;;0.20;0.20;;;;;;;;;;4854980;24;20056;-80
2023/03/28 07:38:49;;;;;;;0.20;0.20;;;;;;;;;;4873448;29;20056;-78
2023/03/28 07:41:21;;;;;;;0.10;0.10;;;;;;;;;;4847376;29;20124;-80
2023/03/28 07:43:47;;;;;;;0.20;0.20;;;;;;;;;;4839178;29;20145;-80
2023/03/28 07:46:16;;;;;;;0.20;0.20;;;;;;;;;;4851757;29;20058;-79
2023/03/28 07:48:45;;;;;;;0.20;0.20;;;;;;;;;;4854859;29;20060;-79
2023/03/28 07:51:11;;;;;;;0.13;0.13;;;;;;;;;;4839656;29;20149;-80
2023/03/28 07:53:38;;;;;;;0.20;0.20;;;;;;;;;;4857418;29;20080;-79
2023/03/28 07:56:04;;;;;;;0.20;0.20;;;;;;;;;;4859341;29;20063;-79
2023/03/28 07:58:42;;;;;;;0.20;0.20;;;;;;;;;;4842256;29;20049;-79
2023/03/28 08:01:10;;;;;;;0.20;0.20;;;;;;;;;;4864159;29;20192;-79
2023/03/28 08:03:37;;;;;;;0.10;0.10;;;;;;;;;;4858778;29;20107;-79
2023/03/28 08:06:04;;;;;;;0.20;0.20;;;;;;;;;;4858224;29;20053;-78
2023/03/28 08:08:33;;;;;;;0.20;0.20;;;;;;;;;;4852569;29;20073;-79
2023/03/28 08:11:03;;;;;;;0.17;0.17;;;;;;;;;;4831445;29;20045;-80
2023/03/28 08:13:31;;;;;;;0.10;0.10;;;;;;;;;;4846329;29;20494;-79
2023/03/28 08:15:58;;;;;;;0.20;0.20;;;;;;;;;;4853686;29;20052;-78
2023/03/28 08:18:24;;;;;;;0.20;0.20;;;;;;;;;;4842227;29;20517;-79
2023/03/28 08:20:56;;;;;;;0.20;0.20;;;;;;;;;;4858212;29;20049;-79
2023/03/28 08:23:22;;;;;;;0.20;0.20;;;;;;;;;;4855785;29;20055;-78
2023/03/28 08:25:48;;;;;;;0.20;0.20;;;;;;;;;;4849628;29;20045;-78
2023/03/28 08:28:17;;;;;;;0.10;0.10;;;;;;;;;;4841822;29;20477;-80
2023/03/28 08:30:43;;;;;;;0.10;0.10;;;;;;;;;;4864817;29;20559;-79
2023/03/28 08:33:09;;;;;;;0.20;0.20;;;;;;;;;;4861306;29;20053;-79
2023/03/28 08:35:35;;;;;;;0.10;0.10;;;;;;;;;;4872886;29;20132;-78
2023/03/28 08:38:01;;;;;;;0.20;0.20;;;;;;;;;;4842762;29;20065;-79
2023/03/28 08:40:28;;;;;;;0.10;0.10;;;;;;;;;;4846815;29;20064;-78
2023/03/28 08:43:13;;;;;;;0.20;0.20;;;;;;;;;;4858411;29;20041;-79
2023/03/28 08:46:01;;;;;;;0.20;0.20;;;;;;;;;;4858115;29;20050;-79
2023/03/28 08:48:32;;;;;;;0.20;0.20;;;;;;;;;;4877634;29;20041;-79
2023/03/28 08:51:11;;;;;;;0.20;0.20;;;;;;;;;;4858169;29;20052;-81
2023/03/28 08:53:42;;;;;;;0.20;0.20;;;;;;;;;;4845401;29;20133;-80
2023/03/28 08:56:09;;;;;;;0.10;0.10;;;;;;;;;;4854756;29;20045;-79
2023/03/28 08:58:56;;;;;;;0.20;0.20;;;;;;;;;;4837739;29;20068;-80
2023/03/28 09:01:24;;;;;;;0.10;0.10;;;;;;;;;;4835246;29;20053;-80
2023/03/28 09:03:50;;;;;;;0.20;0.20;;;;;;;;;;4851174;29;20047;-81
2023/03/28 09:06:16;;;;;;;0.20;0.20;;;;;;;;;;4857566;29;20558;-79
2023/03/28 09:08:45;;;;;;;0.20;0.20;;;;;;;;;;4837327;29;20390;-78
2023/03/28 09:11:35;;;;;;;0.10;0.10;;;;;;;;;;4856147;29;20054;-79
2023/03/28 09:14:24;;;;;;;0.10;0.10;;;;;;;;;;4838756;29;20113;-78
2023/03/28 09:17:09;;;;;;;0.10;0.10;;;;;;;;;;4841510;29;20054;-77
2023/03/28 09:19:44;;;;;;;0.20;0.20;;;;;;;;;;4858157;29;20049;-77
2023/03/28 09:22:16;;;;;;;0.20;0.20;;;;;;;;;;4857860;29;20144;-77
2023/03/28 09:25:13;;;;;;;0.20;0.20;;;7.10;99.90;;;;;;4840356;29;20041;-79
2023/03/28 09:28:37;;;;;;;0.10;0.10;;;7.00;99.90;;;;;;4849438;29;20072;-76
2023/03/28 09:31:13;;;;;;;0.10;0.10;;;7.10;99.90;;;;;;4845757;29;20136;-79
2023/03/28 09:33:44;;;;;;;0.10;0.10;;;7.10;99.90;;;;;;4841080;29;20105;-77
2023/03/28 09:36:12;;;;;;;0.20;0.20;;;7.30;99.90;;;;;;4863245;23;20646;-79
2023/03/28 09:38:44;;;;;;;0.20;0.20;;;7.30;99.90;;;;;;4855377;29;20049;-77
2023/03/28 09:41:39;;;;;;;0.20;0.20;;;7.40;99.90;;;;;;4834990;29;20042;-79
2023/03/28 09:44:10;;;;;;;0.13;0.13;;;7.60;99.90;;;;;;4833852;29;20107;-80
2023/03/28 09:46:42;;;;;;;0.20;0.20;;;7.60;99.70;;;;;;4854947;29;20514;-77
2023/03/28 09:49:23;;;;;;;0.17;0.17;;;7.50;99.30;;;;;;4852138;29;20041;-80
2023/03/28 09:51:51;;;;;;;0.10;0.10;;;7.60;99.60;;;;;;4832482;29;20049;-80
2023/03/28 09:54:40;;;;;;;0.10;0.10;;;7.60;99.70;;;;;;4826655;29;20053;-76
2023/03/28 09:57:06;;;;;;;0.20;0.20;;;7.60;99.60;;;;;;4853836;29;20060;-77
2023/03/28 09:59:34;;;;;;;0.20;0.20;;;7.70;99.00;;;;;;4835241;29;20452;-74
2023/03/28 10:02:04;;;;;;;0.10;0.10;;;7.90;98.90;;;;;;4839887;29;20053;-74
2023/03/28 10:04:33;;;;;;;0.20;0.20;;;7.70;98.40;;;;;;4855505;29;20037;-75
2023/03/28 10:07:08;;;;;;;0.20;0.20;;;7.70;98.80;;;;;;4847311;29;20116;-75
2023/03/28 10:09:52;;;;;;;0.10;0.10;;;7.90;98.00;;;;;;4834714;29;20367;-75
2023/03/28 10:12:26;;;;;;;0.10;0.10;;;7.90;98.30;;;;;;4854777;29;20502;-75
2023/03/28 10:14:52;;;;;;;0.10;0.10;;;8.00;98.40;;;;;;4837466;29;20050;-74
2023/03/28 10:17:31;;;;;;;0.13;0.13;;;8.10;97.20;;;;;;4852629;29;20045;-75
2023/03/28 10:20:21;;;;;;;0.20;0.20;;;8.10;97.60;;;;;;4840028;29;20710;-75
2023/03/28 10:22:53;;;;;;;0.20;0.20;;;8.20;96.70;;;;;;4854871;29;20058;-75
2023/03/28 10:25:22;;;;;;;0.10;0.10;;;8.30;97.00;;;;;;4839806;29;20049;-75
2023/03/28 10:27:50;;;;;;;0.20;0.20;;;8.30;97.10;;;;;;4831987;29;20057;-76
2023/03/28 10:30:30;;;;;;;0.10;0.10;;;8.30;97.20;;;;;;4852033;29;20462;-75
2023/03/28 10:33:25;;;;;;;0.15;0.15;;;8.30;97.30;;;;;;4860026;29;20049;-75
2023/03/28 10:36:01;;;;;;;0.10;0.10;;;8.50;97.60;;;;;;4837916;29;20053;-75
2023/03/28 10:38:36;;;;;;;0.20;0.20;;;8.50;97.50;;;;;;4852017;29;20065;-76
2023/03/28 10:41:10;;;;;;;0.20;0.20;;;8.60;97.30;;;;;;4855515;29;20082;-75
2023/03/28 10:43:44;;;;;;;0.20;0.20;;;8.70;97.50;;;;;;4840531;29;20050;-75
2023/03/28 10:46:31;;;;;;;0.20;0.20;;;8.70;97.60;;;;;;4852012;29;20038;-76
2023/03/28 10:49:00;;;;;;;0.10;0.10;;;8.80;97.20;;;;;;4851258;29;20409;-75
2023/03/28 10:51:30;;;;;;;0.20;0.20;;;8.90;97.20;;;;;;4842605;29;20053;-76
2023/03/28 10:54:06;;;;;;;0.20;0.20;;;9.00;97.50;;;;;;4839178;29;20077;-75
2023/03/28 10:56:40;;;;;;;0.20;0.20;;;9.10;97.10;;;;;;4833091;29;20042;-76
2023/03/28 10:59:30;;;;;;;0.10;0.10;;;9.40;96.60;;;;;;4838743;29;20072;-76
2023/03/28 11:02:05;;;;;;;0.17;0.17;;;9.10;95.90;;;;;;4839693;29;20060;-75
2023/03/28 11:04:45;;;;;;;0.10;0.10;;;9.00;95.90;;;;;;4840615;29;20076;-76
2023/03/28 11:07:37;;;;;;;0.10;0.10;;;8.90;96.30;;;;;;4856641;29;20413;-76
2023/03/28 11:10:10;;;;;;;0.10;0.10;;;8.90;96.40;;;;;;4841307;29;20048;-77
2023/03/28 11:12:54;;;;;;;0.20;0.20;;;9.00;96.50;;;;;;4839145;29;20061;-76
2023/03/28 11:15:22;;;;;;;0.20;0.20;;;9.00;96.70;;;;;;4854324;29;20049;-75
2023/03/28 11:18:02;;;;;;;0.10;0.10;;;9.00;96.30;;;;;;4857794;29;20056;-76
2023/03/28 11:20:37;;;;;;;0.10;0.10;;;9.00;96.20;;;;;;4854905;29;20395;-76
2023/03/28 11:23:21;;;;;;;0.13;0.13;;;9.10;95.40;;;;;;4857047;29;20053;-76
2023/03/28 11:26:22;;;;;;;0.10;0.10;;;9.30;95.50;;;;;;4841050;29;20138;-76
2023/03/28 11:29:13;;;;;;;0.10;0.10;;;9.10;95.60;;;;;;4855212;29;20100;-76
2023/03/28 11:32:02;;;;;;;0.20;0.20;;;9.00;95.60;;;;;;4853190;29;20069;-76
2023/03/28 11:34:28;;;;;;;0.10;0.10;;;9.00;96.00;;;;;;4839137;29;20086;-76
2023/03/28 11:37:06;;;;;;;0.10;0.10;;;9.10;96.30;;;;;;4857427;29;20488;-76
2023/03/28 11:40:22;;;;;;;0.20;0.20;;;9.20;96.50;;;;;;4854742;23;20506;-77
2023/03/28 11:42:55;;;;;;;0.10;0.10;;;9.20;95.40;;;;;;4817699;29;20061;-75
2023/03/28 11:45:33;;;;;;;0.10;0.10;;;9.30;96.30;;;;;;4850550;29;20049;-76
2023/03/28 11:48:18;;;;;;;0.10;0.10;;;9.30;96.30;;;;;;4873391;29;20084;-77
2023/03/28 11:50:55;;;;;;;0.13;0.13;;;9.30;95.80;;;;;;4877307;29;20676;-77
2023/03/28 11:53:32;;;;;;;0.10;0.10;;;9.30;95.60;;;;;;4856899;29;20080;-76
2023/03/28 11:56:29;;;;;;;0.10;0.10;;;9.30;95.50;;;;;;4865427;29;20061;-76
2023/03/28 11:59:03;;;;;;;0.20;0.20;;;9.30;94.20;;;;;;4873846;29;20068;-76
2023/03/28 12:01:36;;;;;;;0.20;0.20;;;9.30;94.80;;;;;;4875836;29;20048;-76
2023/03/28 12:04:15;;;;;;;0.10;0.10;;;9.30;95.20;;;;;;4846816;29;20443;-77
2023/03/28 12:06:43;;;;;;;0.20;0.20;;;9.50;95.40;;;;;;4845596;29;20053;-76
2023/03/28 12:09:10;;;;;;;0.10;0.10;;;;;;;;;;4846178;29;20081;-77
2023/03/28 12:11:49;;;;;;;0.20;0.20;;;9.70;95.00;;;;;;4858810;29;20727;-76
2023/03/28 12:14:25;;;;;;;0.10;0.10;;;9.80;95.70;;;;;;4843276;29;20403;-76
2023/03/28 12:16:56;;;;;;;0.20;0.20;;;10.00;95.20;;;;;;4858856;29;20413;-76
2023/03/28 12:19:36;;;;;;;0.20;0.20;;;10.10;94.80;;;;;;4849370;29;20052;-77
2023/03/28 12:22:08;;;;;;;0.10;0.10;;;;;;;;;;4860420;29;20300;-77
2023/03/28 12:24:57;;;;;;;0.10;0.10;;;10.30;95.50;;;;;;4869272;29;20045;-77
2023/03/28 12:27:51;;;;;;;0.20;0.20;;;10.50;95.20;;;;;;4871609;29;20490;-76
2023/03/28 12:30:36;;;;;;;0.10;0.10;;;10.60;94.90;;;;;;4876799;29;20072;-77
2023/03/28 12:33:21;;;;;;;0.20;0.20;;;10.70;95.10;;;;;;4861294;29;20125;-79
2023/03/28 12:35:51;;;;;;;0.20;0.20;;;;;;;;;;4851228;29;20056;-79
2023/03/28 12:38:46;;;;;;;0.10;0.10;;;10.80;94.10;;;;;;4872115;29;20071;-82
2023/03/28 12:41:18;;;;;;;0.10;0.10;;;10.90;94.60;;;;;;4875732;29;20120;-80
2023/03/28 12:43:58;;;;;;;0.20;0.20;;;11.10;94.90;;;;;;4872517;29;20052;-78
2023/03/28 12:46:35;;;;;;;0.10;0.10;;;11.20;94.50;;;;;;4856608;29;20054;-79
2023/03/28 12:49:01;;;;;;;0.10;0.10;;;;;;;;;;4843453;29;20061;-79
2023/03/28 12:51:40;;;;;;;0.10;0.10;;;11.30;93.10;;;;;;4874635;29;20405;-79
2023/03/28 12:54:07;;;;;;;0.20;0.20;;;11.40;94.20;;;;;;4859815;29;20096;-79
2023/03/28 12:56:33;;;;;;;0.10;0.10;;;11.50;93.90;;;;;;4859188;29;20132;-79
2023/03/28 12:58:59;;;;;;;0.10;0.10;;;11.50;93.40;;;;;;4885139;23;20501;-78
2023/03/28 13:01:50;;;;;;;0.10;0.10;;;11.50;93.30;;;;;;4857304;29;20053;-80
2023/03/28 13:04:27;;;;;;;0.10;0.10;;;11.40;91.90;;;;;;4840747;29;20065;-79
2023/03/28 13:07:20;;;;;;;0.10;0.10;;;11.30;91.30;;;;;;4856735;29;20125;-79
2023/03/28 13:10:03;;;;;;;0.15;0.15;;;11.30;93.20;;;;;;4823551;29;20189;-79
2023/03/28 13:12:54;;;;;;;0.20;0.20;;;11.40;93.20;;;;;;4821431;29;20049;-78
2023/03/28 13:15:24;;;;;;;0.10;0.10;;;11.60;92.50;;;;;;4840332;29;20045;-79
2023/03/28 13:18:21;;;;;;;0.10;0.10;;;11.70;91.80;;;;;;4842091;29;20482;-78
2023/03/28 13:20:50;;;;;;;0.20;0.20;;;11.70;92.50;;;;;;4838862;29;20050;-79
2023/03/28 13:23:17;;;;;;;0.10;0.10;;;11.70;92.60;;;;;;4856841;29;20045;-79
2023/03/28 13:25:55;;;;;;;0.13;0.13;;;11.60;91.70;;;;;;4840436;29;20042;-80
2023/03/28 13:28:32;;;;;;;0.20;0.20;;;11.60;92.20;;;;;;4823189;29;20049;-79
2023/03/28 13:31:17;;;;;;;0.10;0.10;;;11.60;92.70;;;;;;4854024;29;20137;-79
2023/03/28 13:33:52;;;;;;;0.10;0.10;;;11.70;91.80;;;;;;4824185;29;20038;-79
2023/03/28 13:36:24;;;;;;;0.10;0.10;;;11.70;92.10;;;;;;4841545;29;20093;-80
2023/03/28 13:39:18;;;;;;;;;;;11.60;91.20;;;;;;4841784;29;20049;-78
2023/03/28 13:41:44;;;;;;;0.10;0.10;;;11.50;91.80;;;;;;4828257;29;20015;-79
2023/03/28 13:44:12;;;;;;;0.10;0.10;;;11.50;91.80;;;;;;4853798;29;20406;-78
2023/03/28 13:46:46;;;;;;;0.20;0.20;;;;;;;;;;4856073;29;20405;-79
2023/03/28 13:49:36;;;;;;;0.20;0.20;;;11.50;90.90;;;;;;4840920;29;20042;-78
2023/03/28 13:52:17;;;;;;;0.20;0.20;;;;;;;;;;4840830;29;20061;-78
2023/03/28 13:54:45;;;;;;;0.20;0.20;;;;;;;;;;4822558;29;20050;-80
2023/03/28 13:57:19;;;;;;;0.10;0.10;;;11.80;90.70;;;;;;4855417;29;20089;-78
2023/03/28 13:59:51;;;;;;;0.10;0.10;;;;;;;;;;4840255;29;20057;-79
2023/03/28 14:02:41;;;;;;;0.10;0.10;;;12.20;91.70;;;;;;4840236;29;20084;-80
2023/03/28 14:05:30;;;;;;;0.20;0.20;;;;;;;;;;4845083;29;20589;-80
2023/03/28 14:08:20;;;;;;;0.10;0.10;;;13.20;91.90;;;;;;4843029;29;20121;-79
2023/03/28 14:10:46;;;;;;;0.10;0.10;;;;;;;;;;4836441;29;20064;-79
2023/03/28 14:13:39;;;;;;;0.10;0.10;;;;;;;;;;4852682;29;20049;-79
2023/03/28 14:16:06;;;;;;;0.20;0.20;;;;;;;;;;4832505;29;20128;-80
2023/03/28 14:18:46;;;;;;;0.10;0.10;;;15.00;87.40;;;;;;4858114;29;20096;-79
2023/03/28 14:21:14;;;;;;;0.15;0.15;;;;;;;;;;4861459;29;20042;-80
2023/03/28 14:23:54;;;;;;;0.20;0.20;;;14.00;82.80;;;;;;4860616;29;20052;-77
2023/03/28 14:26:23;;;;;;;0.20;0.20;;;13.40;84.80;;;;;;4842720;29;20053;-78
2023/03/28 14:28:50;;;;;;;0.10;0.10;;;;;;;;;;4859528;29;20057;-78
2023/03/28 14:31:30;;;;;;;0.20;0.20;;;;;;;;;;4859488;29;20061;-77
2023/03/28 14:33:58;;;;;;;0.15;0.15;;;11.90;84.30;;;;;;4861825;29;20101;-79
2023/03/28 14:36:29;;;;;;;0.10;0.10;;;11.60;87.00;;;;;;4860361;29;20057;-77
2023/03/28 14:39:01;;;;;;;0.10;0.10;;;11.30;85.70;;;;;;4827556;29;20410;-78
2023/03/28 14:41:28;;;;;;;0.10;0.10;;;11.00;85.40;;;;;;4824683;29;20088;-78
2023/03/28 14:43:56;;;;;;;0.20;0.20;;;10.80;85.80;;;;;;4857218;29;20061;-78